Nogalus, Texas
Current Conditions -  °F | °C
As of 11:53 AM on Monday 26 Jan 2015 (Local Time) from KLFK Reporting Station
Clear Clear  
Wind Chill: 63°   Ceiling: Unl
Heat Index: 63°   Visibility: 10mi
Dew Point: 31°   Wind: 7mph
Humidity: 30%   Direction: NA
Pressure: 30.21"   Gusts: NA
Location:  31.0585°N, 95.0561°W
Report Text: KLFK 261753Z AUTO VRB06KT 10SM CLR 17/M01 A3021 RMK AO2 SLP228 T01721006 10172 20017 50001
Loading
Personal Weather Stations






























Interactive Weather Map New forecast layout! Learn more

10-Day Weather Forecast

Advertisements
Track Severe Weather on mobile